sensor_id;sensor_type;location;lat;lon;timestamp;pressure;altitude;pressure_sealevel;temperature;humidity
46464;BME280;32161;48.148;-1.554;2022-10-16T00:01:46;100557.84;;;14.88;100.00
46464;BME280;32161;48.148;-1.554;2022-10-16T00:04:14;100559.47;;;14.89;100.00
46464;BME280;32161;48.148;-1.554;2022-10-16T00:06:42;100556.47;;;14.90;100.00
46464;BME280;32161;48.148;-1.554;2022-10-16T00:09:10;100558.69;;;14.94;100.00
46464;BME280;32161;48.148;-1.554;2022-10-16T00:11:39;100569.66;;;14.99;100.00
46464;BME280;32161;48.148;-1.554;2022-10-16T00:14:11;100568.59;;;15.00;100.00
46464;BME280;32161;48.148;-1.554;2022-10-16T00:16:41;100565.84;;;15.00;100.00
46464;BME280;32161;48.148;-1.554;2022-10-16T00:19:10;100567.50;;;15.01;100.00
46464;BME280;32161;48.148;-1.554;2022-10-16T00:21:38;100566.44;;;15.07;100.00
46464;BME280;32161;48.148;-1.554;2022-10-16T00:24:08;100568.06;;;15.03;100.00
46464;BME280;32161;48.148;-1.554;2022-10-16T00:26:37;100558.75;;;15.04;100.00
46464;BME280;32161;48.148;-1.554;2022-10-16T00:29:06;100561.19;;;15.00;100.00
46464;BME280;32161;48.148;-1.554;2022-10-16T00:31:34;100564.75;;;15.01;100.00
46464;BME280;32161;48.148;-1.554;2022-10-16T00:34:03;100560.91;;;15.02;100.00
46464;BME280;32161;48.148;-1.554;2022-10-16T00:36:31;100568.31;;;15.01;100.00
46464;BME280;32161;48.148;-1.554;2022-10-16T00:38:58;100572.44;;;15.04;100.00
46464;BME280;32161;48.148;-1.554;2022-10-16T00:41:27;100568.59;;;15.05;100.00
46464;BME280;32161;48.148;-1.554;2022-10-16T00:43:57;100565.88;;;15.05;100.00
46464;BME280;32161;48.148;-1.554;2022-10-16T00:46:27;100570.81;;;15.08;100.00
46464;BME280;32161;48.148;-1.554;2022-10-16T00:49:00;100579.56;;;15.10;100.00
46464;BME280;32161;48.148;-1.554;2022-10-16T00:51:33;100568.09;;;15.13;100.00
46464;BME280;32161;48.148;-1.554;2022-10-16T00:54:04;100576.91;;;15.15;100.00
46464;BME280;32161;48.148;-1.554;2022-10-16T00:56:32;100573.06;;;15.16;100.00
46464;BME280;32161;48.148;-1.554;2022-10-16T00:59:02;100573.59;;;15.18;100.00
46464;BME280;32161;48.148;-1.554;2022-10-16T01:01:31;100567.06;;;15.19;100.00
46464;BME280;32161;48.148;-1.554;2022-10-16T01:03:58;100567.59;;;15.21;100.00
46464;BME280;32161;48.148;-1.554;2022-10-16T01:06:36;100572.56;;;15.24;100.00
46464;BME280;32161;48.148;-1.554;2022-10-16T01:09:16;100568.72;;;15.25;100.00
46464;BME280;32161;48.148;-1.554;2022-10-16T01:11:57;100569.34;;;15.37;100.00
46464;BME280;32161;48.148;-1.554;2022-10-16T01:14:37;100570.41;;;15.31;100.00
46464;BME280;32161;48.148;-1.554;2022-10-16T01:17:12;100572.03;;;15.32;100.00
46464;BME280;32161;48.148;-1.554;2022-10-16T01:20:00;100575.06;;;15.36;100.00
46464;BME280;32161;48.148;-1.554;2022-10-16T01:22:39;100576.69;;;15.32;100.00
46464;BME280;32161;48.148;-1.554;2022-10-16T01:25:16;100572.34;;;15.36;100.00
46464;BME280;32161;48.148;-1.554;2022-10-16T01:27:48;100576.16;;;15.30;100.00
46464;BME280;32161;48.148;-1.554;2022-10-16T01:30:21;100576.41;;;15.28;100.00
46464;BME280;32161;48.148;-1.554;2022-10-16T01:32:54;100584.38;;;15.30;100.00
46464;BME280;32161;48.148;-1.554;2022-10-16T01:35:27;100581.34;;;15.31;100.00
46464;BME280;32161;48.148;-1.554;2022-10-16T01:38:02;100582.47;;;15.30;100.00
46464;BME280;32161;48.148;-1.554;2022-10-16T01:40:34;100586.59;;;15.38;100.00
46464;BME280;32161;48.148;-1.554;2022-10-16T01:43:07;100585.22;;;15.35;100.00
46464;BME280;32161;48.148;-1.554;2022-10-16T01:45:36;100589.06;;;15.34;100.00
46464;BME280;32161;48.148;-1.554;2022-10-16T01:48:05;100589.88;;;15.35;100.00
46464;BME280;32161;48.148;-1.554;2022-10-16T01:50:39;100595.34;;;15.35;100.00
46464;BME280;32161;48.148;-1.554;2022-10-16T01:53:11;100592.38;;;15.42;100.00
46464;BME280;32161;48.148;-1.554;2022-10-16T01:55:43;100586.06;;;15.41;100.00
46464;BME280;32161;48.148;-1.554;2022-10-16T01:58:14;100587.44;;;15.38;100.00
46464;BME280;32161;48.148;-1.554;2022-10-16T02:00:45;100582.50;;;15.41;100.00
46464;BME280;32161;48.148;-1.554;2022-10-16T02:03:17;100588.78;;;15.36;100.00
46464;BME280;32161;48.148;-1.554;2022-10-16T02:05:49;100587.66;;;15.37;100.00
46464;BME280;32161;48.148;-1.554;2022-10-16T02:08:18;100589.06;;;15.39;100.00
46464;BME280;32161;48.148;-1.554;2022-10-16T02:10:46;100584.38;;;15.35;100.00
46464;BME280;32161;48.148;-1.554;2022-10-16T02:13:19;100595.59;;;15.33;100.00
46464;BME280;32161;48.148;-1.554;2022-10-16T02:15:49;100590.13;;;15.33;100.00
46464;BME280;32161;48.148;-1.554;2022-10-16T02:18:16;100597.28;;;15.34;100.00
46464;BME280;32161;48.148;-1.554;2022-10-16T02:20:51;100594.84;;;15.43;100.00
46464;BME280;32161;48.148;-1.554;2022-10-16T02:23:30;100585.22;;;15.35;100.00
46464;BME280;32161;48.148;-1.554;2022-10-16T02:26:05;100581.34;;;15.31;100.00
46464;BME280;32161;48.148;-1.554;2022-10-16T02:28:41;100588.19;;;15.29;100.00
46464;BME280;32161;48.148;-1.554;2022-10-16T02:31:12;100593.94;;;15.27;100.00
46464;BME280;32161;48.148;-1.554;2022-10-16T02:33:44;100596.09;;;15.25;100.00
46464;BME280;32161;48.148;-1.554;2022-10-16T02:36:13;100592.53;;;15.25;100.00
46464;BME280;32161;48.148;-1.554;2022-10-16T02:38:41;100584.59;;;15.23;100.00
46464;BME280;32161;48.148;-1.554;2022-10-16T02:41:09;100586.75;;;15.21;100.00
46464;BME280;32161;48.148;-1.554;2022-10-16T02:43:39;100580.47;;;15.21;100.00
46464;BME280;32161;48.148;-1.554;2022-10-16T02:46:07;100590.59;;;15.20;100.00
46464;BME280;32161;48.148;-1.554;2022-10-16T02:48:34;100591.69;;;15.19;100.00
46464;BME280;32161;48.148;-1.554;2022-10-16T02:51:02;100580.75;;;15.19;100.00
46464;BME280;32161;48.148;-1.554;2022-10-16T02:53:30;100584.56;;;15.18;100.00
46464;BME280;32161;48.148;-1.554;2022-10-16T02:55:58;100583.72;;;15.18;100.00
46464;BME280;32161;48.148;-1.554;2022-10-16T02:58:25;100592.75;;;15.18;100.00
46464;BME280;32161;48.148;-1.554;2022-10-16T03:00:55;100592.75;;;15.18;100.00
46464;BME280;32161;48.148;-1.554;2022-10-16T03:03:23;100596.88;;;15.16;100.00
46464;BME280;32161;48.148;-1.554;2022-10-16T03:05:51;100599.03;;;15.13;100.00
46464;BME280;32161;48.148;-1.554;2022-10-16T03:08:18;100599.03;;;15.13;100.00
46464;BME280;32161;48.148;-1.554;2022-10-16T03:10:50;100600.97;;;15.13;100.00
46464;BME280;32161;48.148;-1.554;2022-10-16T03:13:17;100601.78;;;15.13;100.00
46464;BME280;32161;48.148;-1.554;2022-10-16T03:15:46;100594.66;;;15.12;100.00
46464;BME280;32161;48.148;-1.554;2022-10-16T03:18:16;100586.19;;;15.14;100.00
46464;BME280;32161;48.148;-1.554;2022-10-16T03:20:44;100592.72;;;15.08;100.00
46464;BME280;32161;48.148;-1.554;2022-10-16T03:23:11;100597.63;;;15.06;100.00
46464;BME280;32161;48.148;-1.554;2022-10-16T03:25:39;100598.72;;;15.05;100.00
46464;BME280;32161;48.148;-1.554;2022-10-16T03:28:07;100596.81;;;15.05;100.00
46464;BME280;32161;48.148;-1.554;2022-10-16T03:30:35;100607.50;;;15.07;100.00
46464;BME280;32161;48.148;-1.554;2022-10-16T03:33:02;100603.69;;;15.08;100.00
46464;BME280;32161;48.148;-1.554;2022-10-16T03:35:32;100609.16;;;15.08;100.00
46464;BME280;32161;48.148;-1.554;2022-10-16T03:38:00;100604.78;;;15.07;100.00
46464;BME280;32161;48.148;-1.554;2022-10-16T03:40:28;100605.00;;;15.05;100.00
46464;BME280;32161;48.148;-1.554;2022-10-16T03:42:57;100608.84;;;15.04;100.00
46464;BME280;32161;48.148;-1.554;2022-10-16T03:45:25;100611.28;;;15.01;100.00
46464;BME280;32161;48.148;-1.554;2022-10-16T03:47:53;100613.81;;;15.07;100.00
46464;BME280;32161;48.148;-1.554;2022-10-16T03:50:21;100610.78;;;15.09;100.00
46464;BME280;32161;48.148;-1.554;2022-10-16T03:52:50;100604.78;;;15.12;100.00
46464;BME280;32161;48.148;-1.554;2022-10-16T03:55:17;100609.41;;;15.06;100.00
46464;BME280;32161;48.148;-1.554;2022-10-16T03:57:45;100594.66;;;15.12;100.00
46464;BME280;32161;48.148;-1.554;2022-10-16T04:00:13;100598.22;;;15.13;100.00
46464;BME280;32161;48.148;-1.554;2022-10-16T04:02:41;100608.63;;;15.11;100.00
46464;BME280;32161;48.148;-1.554;2022-10-16T04:05:09;100602.59;;;15.14;100.00
46464;BME280;32161;48.148;-1.554;2022-10-16T04:07:36;100611.38;;;15.16;100.00
46464;BME280;32161;48.148;-1.554;2022-10-16T04:10:07;100614.66;;;15.18;100.00
46464;BME280;32161;48.148;-1.554;2022-10-16T04:12:34;100620.44;;;15.17;100.00
46464;BME280;32161;48.148;-1.554;2022-10-16T04:15:03;100616.25;;;15.09;100.00
46464;BME280;32161;48.148;-1.554;2022-10-16T04:17:30;100620.84;;;14.98;100.00
46464;BME280;32161;48.148;-1.554;2022-10-16T04:19:58;100617.06;;;15.04;100.00
46464;BME280;32161;48.148;-1.554;2022-10-16T04:22:25;100621.75;;;15.09;100.00
46464;BME280;32161;48.148;-1.554;2022-10-16T04:24:53;100622.63;;;15.14;100.00
46464;BME280;32161;48.148;-1.554;2022-10-16T04:27:22;100612.50;;;15.20;100.00
46464;BME280;32161;48.148;-1.554;2022-10-16T04:29:50;100598.03;;;15.25;100.00
46464;BME280;32161;48.148;-1.554;2022-10-16T04:32:17;100609.53;;;15.27;100.00
46464;BME280;32161;48.148;-1.554;2022-10-16T04:34:45;100612.00;;;15.28;100.00
46464;BME280;32161;48.148;-1.554;2022-10-16T04:37:12;100604.63;;;15.29;100.00
46464;BME280;32161;48.148;-1.554;2022-10-16T04:39:40;100598.31;;;15.28;100.00
46464;BME280;32161;48.148;-1.554;2022-10-16T04:42:08;100598.06;;;15.30;100.00
46464;BME280;32161;48.148;-1.554;2022-10-16T04:44:37;100599.19;;;15.34;100.00
46464;BME280;32161;48.148;-1.554;2022-10-16T04:47:04;100597.50;;;15.33;100.00
46464;BME280;32161;48.148;-1.554;2022-10-16T04:49:32;100605.47;;;15.34;100.00
46464;BME280;32161;48.148;-1.554;2022-10-16T04:52:00;100609.34;;;15.38;100.00
46464;BME280;32161;48.148;-1.554;2022-10-16T04:54:27;100614.81;;;15.38;100.00
46464;BME280;32161;48.148;-1.554;2022-10-16T04:56:55;100614.81;;;15.38;100.00
46464;BME280;32161;48.148;-1.554;2022-10-16T04:59:23;100629.34;;;15.39;100.00
46464;BME280;32161;48.148;-1.554;2022-10-16T05:01:52;100638.94;;;15.42;100.00
46464;BME280;32161;48.148;-1.554;2022-10-16T05:04:20;100631.53;;;15.42;100.00
46464;BME280;32161;48.148;-1.554;2022-10-16T05:06:48;100636.44;;;15.40;100.00
46464;BME280;32161;48.148;-1.554;2022-10-16T05:09:16;100642.81;;;15.46;100.00
46464;BME280;32161;48.148;-1.554;2022-10-16T05:11:43;100638.38;;;15.45;100.00
46464;BME280;32161;48.148;-1.554;2022-10-16T05:14:11;100635.66;;;15.45;100.00
46464;BME280;32161;48.148;-1.554;2022-10-16T05:16:38;100632.91;;;15.45;100.00
46464;BME280;32161;48.148;-1.554;2022-10-16T05:19:08;100629.63;;;15.43;100.00
46464;BME280;32161;48.148;-1.554;2022-10-16T05:21:35;100624.69;;;15.45;100.00
46464;BME280;32161;48.148;-1.554;2022-10-16T05:24:03;100629.09;;;15.46;100.00
46464;BME280;32161;48.148;-1.554;2022-10-16T05:26:31;100627.47;;;15.50;100.00
46464;BME280;32161;48.148;-1.554;2022-10-16T05:28:58;100637.34;;;15.51;100.00
46464;BME280;32161;48.148;-1.554;2022-10-16T05:31:26;100642.28;;;15.54;100.00
46464;BME280;32161;48.148;-1.554;2022-10-16T05:33:59;100640.38;;;15.54;100.00
46464;BME280;32161;48.148;-1.554;2022-10-16T05:36:28;100637.34;;;15.56;100.00
46464;BME280;32161;48.148;-1.554;2022-10-16T05:38:56;100640.66;;;15.58;100.00
46464;BME280;32161;48.148;-1.554;2022-10-16T05:41:23;100631.06;;;15.55;100.00
46464;BME280;32161;48.148;-1.554;2022-10-16T05:43:52;100637.09;;;15.57;100.00
46464;BME280;32161;48.148;-1.554;2022-10-16T05:46:20;100636.31;;;15.62;100.00
46464;BME280;32161;48.148;-1.554;2022-10-16T05:48:48;100638.75;;;15.63;100.00
46464;BME280;32161;48.148;-1.554;2022-10-16T05:51:15;100632.47;;;15.63;100.00
46464;BME280;32161;48.148;-1.554;2022-10-16T05:53:44;100639.38;;;15.66;100.00
46464;BME280;32161;48.148;-1.554;2022-10-16T05:56:12;100637.44;;;15.66;100.00
46464;BME280;32161;48.148;-1.554;2022-10-16T05:58:40;100631.97;;;15.66;100.00
46464;BME280;32161;48.148;-1.554;2022-10-16T06:01:12;100622.94;;;15.71;100.00
46464;BME280;32161;48.148;-1.554;2022-10-16T06:03:40;100619.38;;;15.70;100.00
46464;BME280;32161;48.148;-1.554;2022-10-16T06:06:09;100621.84;;;15.72;100.00
46464;BME280;32161;48.148;-1.554;2022-10-16T06:08:38;100613.63;;;15.72;100.00
46464;BME280;32161;48.148;-1.554;2022-10-16T06:11:10;100609.00;;;15.72;100.00
46464;BME280;32161;48.148;-1.554;2022-10-16T06:13:38;100606.50;;;15.71;100.00
46464;BME280;32161;48.148;-1.554;2022-10-16T06:16:08;100612.81;;;15.71;100.00
46464;BME280;32161;48.148;-1.554;2022-10-16T06:18:36;100613.63;;;15.72;100.00
46464;BME280;32161;48.148;-1.554;2022-10-16T06:21:09;100610.34;;;15.70;100.00
46464;BME280;32161;48.148;-1.554;2022-10-16T06:23:37;100608.69;;;15.69;100.00
46464;BME280;32161;48.148;-1.554;2022-10-16T06:26:07;100612.81;;;15.71;100.00
46464;BME280;32161;48.148;-1.554;2022-10-16T06:28:36;100606.50;;;15.71;100.00
46464;BME280;32161;48.148;-1.554;2022-10-16T06:31:05;100621.03;;;15.71;100.00
46464;BME280;32161;48.148;-1.554;2022-10-16T06:33:34;100617.22;;;15.72;100.00
46464;BME280;32161;48.148;-1.554;2022-10-16T06:36:02;100611.72;;;15.72;100.00
46464;BME280;32161;48.148;-1.554;2022-10-16T06:38:30;100616.13;;;15.73;100.00
46464;BME280;32161;48.148;-1.554;2022-10-16T06:40:58;100615.00;;;15.74;100.00
46464;BME280;32161;48.148;-1.554;2022-10-16T06:43:29;100629.28;;;15.76;100.00
46464;BME280;32161;48.148;-1.554;2022-10-16T06:45:59;100632.03;;;15.76;100.00
46464;BME280;32161;48.148;-1.554;2022-10-16T06:48:28;100638.31;;;15.77;100.00
46464;BME280;32161;48.148;-1.554;2022-10-16T06:50:57;100631.19;;;15.76;100.00
46464;BME280;32161;48.148;-1.554;2022-10-16T06:53:26;100643.00;;;15.76;100.00
46464;BME280;32161;48.148;-1.554;2022-10-16T06:55:54;100653.66;;;15.78;100.00
46464;BME280;32161;48.148;-1.554;2022-10-16T06:58:23;100650.66;;;15.79;100.00
46464;BME280;32161;48.148;-1.554;2022-10-16T07:00:57;100656.97;;;15.80;100.00
46464;BME280;32161;48.148;-1.554;2022-10-16T07:03:24;100649.84;;;15.79;100.00
46464;BME280;32161;48.148;-1.554;2022-10-16T07:05:52;100667.38;;;15.78;100.00
46464;BME280;32161;48.148;-1.554;2022-10-16T07:08:20;100661.91;;;15.78;100.00
46464;BME280;32161;48.148;-1.554;2022-10-16T07:10:47;100660.53;;;15.80;100.00
46464;BME280;32161;48.148;-1.554;2022-10-16T07:13:15;100655.06;;;15.80;100.00
46464;BME280;32161;48.148;-1.554;2022-10-16T07:15:43;100656.44;;;15.83;100.00
46464;BME280;32161;48.148;-1.554;2022-10-16T07:18:12;100667.38;;;15.83;100.00
46464;BME280;32161;48.148;-1.554;2022-10-16T07:20:39;100667.94;;;15.80;100.00
46464;BME280;32161;48.148;-1.554;2022-10-16T07:23:07;100663.28;;;15.80;100.00
46464;BME280;32161;48.148;-1.554;2022-10-16T07:25:34;100668.78;;;15.85;100.00
46464;BME280;32161;48.148;-1.554;2022-10-16T07:28:02;100676.44;;;15.83;100.00
46464;BME280;32161;48.148;-1.554;2022-10-16T07:30:30;100683.91;;;15.93;100.00
46464;BME280;32161;48.148;-1.554;2022-10-16T07:32:58;100680.31;;;15.88;100.00
46464;BME280;32161;48.148;-1.554;2022-10-16T07:35:27;100686.63;;;15.93;100.00
46464;BME280;32161;48.148;-1.554;2022-10-16T07:37:54;100686.56;;;15.78;100.00
46464;BME280;32161;48.148;-1.554;2022-10-16T07:40:22;100684.69;;;15.89;100.00
46464;BME280;32161;48.148;-1.554;2022-10-16T07:42:49;100680.03;;;15.84;100.00
46464;BME280;32161;48.148;-1.554;2022-10-16T07:45:20;100683.31;;;15.86;100.00
46464;BME280;32161;48.148;-1.554;2022-10-16T07:47:48;100686.03;;;15.86;100.00
46464;BME280;32161;48.148;-1.554;2022-10-16T07:50:26;100677.00;;;15.91;100.00
46464;BME280;32161;48.148;-1.554;2022-10-16T07:53:02;100682.25;;;15.97;100.00
46464;BME280;32161;48.148;-1.554;2022-10-16T07:55:30;100679.22;;;15.94;100.00
46464;BME280;32161;48.148;-1.554;2022-10-16T07:57:58;100680.34;;;15.93;100.00
46464;BME280;32161;48.148;-1.554;2022-10-16T08:00:26;100677.59;;;15.98;100.00
46464;BME280;32161;48.148;-1.554;2022-10-16T08:02:54;100672.09;;;15.93;100.00
46464;BME280;32161;48.148;-1.554;2022-10-16T08:05:22;100677.31;;;15.94;100.00
46464;BME280;32161;48.148;-1.554;2022-10-16T08:08:00;100672.94;;;15.98;100.00
46464;BME280;32161;48.148;-1.554;2022-10-16T08:10:51;100662.25;;;15.97;100.00
46464;BME280;32161;48.148;-1.554;2022-10-16T08:13:19;100673.28;;;16.07;100.00
46464;BME280;32161;48.148;-1.554;2022-10-16T08:15:48;100671.34;;;16.13;100.00
46464;BME280;32161;48.148;-1.554;2022-10-16T08:18:25;100674.69;;;16.20;100.00
46464;BME280;32161;48.148;-1.554;2022-10-16T08:20:57;100676.59;;;16.29;100.00
46464;BME280;32161;48.148;-1.554;2022-10-16T08:23:29;100678.84;;;16.38;100.00
46464;BME280;32161;48.148;-1.554;2022-10-16T08:26:03;100685.72;;;16.45;100.00
46464;BME280;32161;48.148;-1.554;2022-10-16T08:28:32;100684.38;;;16.63;100.00
46464;BME280;32161;48.148;-1.554;2022-10-16T08:31:07;100686.00;;;16.64;100.00
46464;BME280;32161;48.148;-1.554;2022-10-16T08:33:35;100693.47;;;16.69;100.00
46464;BME280;32161;48.148;-1.554;2022-10-16T08:36:04;100680.28;;;16.66;100.00
46464;BME280;32161;48.148;-1.554;2022-10-16T08:38:34;100677.00;;;16.69;100.00
46464;BME280;32161;48.148;-1.554;2022-10-16T08:41:54;100685.47;;;16.67;100.00
46464;BME280;32161;48.148;-1.554;2022-10-16T08:45:04;100688.00;;;16.79;98.74
46464;BME280;32161;48.148;-1.554;2022-10-16T08:48:13;100691.31;;;16.91;96.63
46464;BME280;32161;48.148;-1.554;2022-10-16T08:50:53;100689.38;;;16.97;96.66
46464;BME280;32161;48.148;-1.554;2022-10-16T08:53:24;100678.38;;;17.02;97.07
46464;BME280;32161;48.148;-1.554;2022-10-16T08:55:55;100676.75;;;17.01;96.42
46464;BME280;32161;48.148;-1.554;2022-10-16T08:58:29;100680.88;;;17.03;97.32
46464;BME280;32161;48.148;-1.554;2022-10-16T09:01:00;100673.19;;;17.05;97.00
46464;BME280;32161;48.148;-1.554;2022-10-16T09:03:58;100683.06;;;17.06;97.52
46464;BME280;32161;48.148;-1.554;2022-10-16T09:06:42;100674.28;;;17.15;96.46
46464;BME280;32161;48.148;-1.554;2022-10-16T09:09:39;100678.91;;;17.29;95.92
46464;BME280;32161;48.148;-1.554;2022-10-16T09:12:17;100672.88;;;17.32;95.17
46464;BME280;32161;48.148;-1.554;2022-10-16T09:15:02;100665.72;;;17.37;94.14
46464;BME280;32161;48.148;-1.554;2022-10-16T09:17:45;100666.28;;;17.28;93.72
46464;BME280;32161;48.148;-1.554;2022-10-16T09:20:34;100676.72;;;17.31;94.58
46464;BME280;32161;48.148;-1.554;2022-10-16T09:23:16;100686.88;;;17.36;93.93
46464;BME280;32161;48.148;-1.554;2022-10-16T09:25:47;100687.16;;;17.50;92.81
46464;BME280;32161;48.148;-1.554;2022-10-16T09:28:18;100693.19;;;17.57;91.81
46464;BME280;32161;48.148;-1.554;2022-10-16T09:30:46;100662.94;;;17.52;92.57
46464;BME280;32161;48.148;-1.554;2022-10-16T09:33:18;100663.53;;;17.44;92.34
46464;BME280;32161;48.148;-1.554;2022-10-16T09:35:49;100656.94;;;17.35;90.77
46464;BME280;32161;48.148;-1.554;2022-10-16T09:38:28;100649.25;;;17.31;87.25
46464;BME280;32161;48.148;-1.554;2022-10-16T09:40:57;100643.78;;;17.16;87.94
46464;BME280;32161;48.148;-1.554;2022-10-16T09:43:32;100652.28;;;17.35;87.55
46464;BME280;32161;48.148;-1.554;2022-10-16T09:46:04;100655.81;;;17.41;86.89
46464;BME280;32161;48.148;-1.554;2022-10-16T09:48:37;100654.22;;;17.35;88.19
46464;BME280;32161;48.148;-1.554;2022-10-16T09:51:16;100658.59;;;17.36;88.49
46464;BME280;32161;48.148;-1.554;2022-10-16T09:53:47;100642.13;;;17.30;89.97
46464;BME280;32161;48.148;-1.554;2022-10-16T09:56:24;100644.59;;;17.22;91.35
46464;BME280;32161;48.148;-1.554;2022-10-16T09:58:58;100648.69;;;17.29;90.76
46464;BME280;32161;48.148;-1.554;2022-10-16T10:01:36;100658.56;;;17.41;89.57
46464;BME280;32161;48.148;-1.554;2022-10-16T10:04:05;100663.25;;;17.40;90.41
46464;BME280;32161;48.148;-1.554;2022-10-16T10:06:36;100657.13;;;17.64;87.36
46464;BME280;32161;48.148;-1.554;2022-10-16T10:09:06;100663.47;;;17.69;87.27
46464;BME280;32161;48.148;-1.554;2022-10-16T10:11:50;100659.03;;;17.73;88.26
46464;BME280;32161;48.148;-1.554;2022-10-16T10:14:27;100664.56;;;17.84;88.59
46464;BME280;32161;48.148;-1.554;2022-10-16T10:17:16;100666.44;;;17.83;88.80
46464;BME280;32161;48.148;-1.554;2022-10-16T10:19:50;100659.00;;;17.94;88.35
46464;BME280;32161;48.148;-1.554;2022-10-16T10:22:31;100655.63;;;18.12;85.73
46464;BME280;32161;48.148;-1.554;2022-10-16T10:25:25;100658.94;;;18.09;85.92
46464;BME280;32161;48.148;-1.554;2022-10-16T10:28:36;100663.66;;;18.03;86.07
46464;BME280;32161;48.148;-1.554;2022-10-16T10:31:14;100651.75;;;18.13;85.81
46464;BME280;32161;48.148;-1.554;2022-10-16T10:33:48;100644.66;;;18.07;82.77
46464;BME280;32161;48.148;-1.554;2022-10-16T10:36:29;100634.78;;;17.96;80.83
46464;BME280;32161;48.148;-1.554;2022-10-16T10:39:00;100639.78;;;17.89;81.73
46464;BME280;32161;48.148;-1.554;2022-10-16T10:42:01;100652.72;;;17.78;82.30
46464;BME280;32161;48.148;-1.554;2022-10-16T10:45:00;100654.66;;;17.72;83.51
46464;BME280;32161;48.148;-1.554;2022-10-16T10:47:45;100652.53;;;17.39;82.98
46464;BME280;32161;48.148;-1.554;2022-10-16T10:50:26;100656.38;;;17.48;83.27
46464;BME280;32161;48.148;-1.554;2022-10-16T10:53:10;100656.94;;;17.29;85.23
46464;BME280;32161;48.148;-1.554;2022-10-16T10:55:44;100655.31;;;17.28;86.78
46464;BME280;32161;48.148;-1.554;2022-10-16T11:01:40;100654.19;;;17.29;88.67
46464;BME280;32161;48.148;-1.554;2022-10-16T11:07:28;100679.22;;;17.28;89.62
46464;BME280;32161;48.148;-1.554;2022-10-16T11:10:03;100679.50;;;17.26;90.72
46464;BME280;32161;48.148;-1.554;2022-10-16T11:12:38;100676.19;;;17.24;91.11
46464;BME280;32161;48.148;-1.554;2022-10-16T11:15:14;100680.59;;;17.20;91.51
46464;BME280;32161;48.148;-1.554;2022-10-16T11:17:47;100690.19;;;17.18;91.08
46464;BME280;32161;48.148;-1.554;2022-10-16T11:20:20;100704.50;;;17.15;91.88
46464;BME280;32161;48.148;-1.554;2022-10-16T11:22:55;100713.56;;;17.15;93.61
46464;BME280;32161;48.148;-1.554;2022-10-16T11:25:28;100707.78;;;17.12;94.21
46464;BME280;32161;48.148;-1.554;2022-10-16T11:28:02;100694.31;;;17.10;94.51
46464;BME280;32161;48.148;-1.554;2022-10-16T11:30:42;100689.41;;;17.07;94.99
46464;BME280;32161;48.148;-1.554;2022-10-16T11:33:35;100688.84;;;17.05;95.26
46464;BME280;32161;48.148;-1.554;2022-10-16T11:36:19;100679.78;;;16.99;95.74
46464;BME280;32161;48.148;-1.554;2022-10-16T11:38:58;100673.72;;;16.97;96.16
46464;BME280;32161;48.148;-1.554;2022-10-16T11:41:32;100661.38;;;16.95;96.73
46464;BME280;32161;48.148;-1.554;2022-10-16T11:44:18;100672.34;;;16.90;97.50
46464;BME280;32161;48.148;-1.554;2022-10-16T11:46:52;100672.91;;;16.87;98.09
46464;BME280;32161;48.148;-1.554;2022-10-16T11:49:27;100657.00;;;16.83;98.87
46464;BME280;32161;48.148;-1.554;2022-10-16T11:52:10;100650.94;;;16.87;99.35
46464;BME280;32161;48.148;-1.554;2022-10-16T11:54:51;100650.97;;;16.92;99.85
46464;BME280;32161;48.148;-1.554;2022-10-16T11:57:23;100644.34;;;16.93;100.00
46464;BME280;32161;48.148;-1.554;2022-10-16T11:59:55;100629.53;;;16.89;100.00
46464;BME280;32161;48.148;-1.554;2022-10-16T12:02:50;100618.56;;;16.89;100.00
46464;BME280;32161;48.148;-1.554;2022-10-16T12:05:28;100604.53;;;16.90;100.00
46464;BME280;32161;48.148;-1.554;2022-10-16T12:08:09;100592.19;;;16.93;100.00
46464;BME280;32161;48.148;-1.554;2022-10-16T12:10:39;100597.69;;;16.93;100.00
46464;BME280;32161;48.148;-1.554;2022-10-16T12:13:31;100598.78;;;16.92;100.00
46464;BME280;32161;48.148;-1.554;2022-10-16T12:16:22;100596.56;;;16.94;100.00
46464;BME280;32161;48.148;-1.554;2022-10-16T12:19:14;100585.59;;;16.99;100.00
46464;BME280;32161;48.148;-1.554;2022-10-16T12:21:43;100581.47;;;17.01;100.00
46464;BME280;32161;48.148;-1.554;2022-10-16T12:24:29;100574.88;;;17.07;100.00
46464;BME280;32161;48.148;-1.554;2022-10-16T12:26:59;100583.94;;;17.08;100.00
46464;BME280;32161;48.148;-1.554;2022-10-16T12:29:36;100574.31;;;17.11;100.00
46464;BME280;32161;48.148;-1.554;2022-10-16T12:32:22;100571.81;;;17.19;100.00
46464;BME280;32161;48.148;-1.554;2022-10-16T12:34:53;100566.03;;;17.21;100.00
46464;BME280;32161;48.148;-1.554;2022-10-16T12:37:24;100558.31;;;17.33;100.00
46464;BME280;32161;48.148;-1.554;2022-10-16T12:40:10;100560.22;;;17.32;100.00
46464;BME280;32161;48.148;-1.554;2022-10-16T12:42:40;100560.75;;;17.40;100.00
46464;BME280;32161;48.148;-1.554;2022-10-16T12:45:28;100553.59;;;17.44;100.00
46464;BME280;32161;48.148;-1.554;2022-10-16T12:47:58;100563.19;;;17.51;100.00
46464;BME280;32161;48.148;-1.554;2022-10-16T12:50:36;100553.28;;;17.61;100.00
46464;BME280;32161;48.148;-1.554;2022-10-16T12:53:18;100561.78;;;17.64;100.00
46464;BME280;32161;48.148;-1.554;2022-10-16T12:56:18;100557.31;;;17.73;100.00
46464;BME280;32161;48.148;-1.554;2022-10-16T12:59:13;100554.56;;;17.84;100.00
46464;BME280;32161;48.148;-1.554;2022-10-16T13:02:27;100536.34;;;17.93;100.00
46464;BME280;32161;48.148;-1.554;2022-10-16T13:05:22;100531.09;;;17.96;100.00
46464;BME280;32161;48.148;-1.554;2022-10-16T13:08:06;100528.91;;;17.93;100.00
46464;BME280;32161;48.148;-1.554;2022-10-16T13:10:56;100524.25;;;17.94;100.00